createdAt,value
2017-01-25T00:00:20.219Z,99.24
2017-01-25T00:01:20.864Z,99.15
2017-01-25T00:02:21.534Z,99.24
2017-01-25T00:03:22.671Z,99.24
2017-01-25T00:04:23.383Z,99.33
2017-01-25T00:05:24.105Z,98.96
2017-01-25T00:06:24.817Z,99.15
2017-01-25T00:07:25.535Z,99.24
2017-01-25T00:08:26.257Z,99.15
2017-01-25T00:09:26.874Z,98.86
2017-01-25T00:10:27.551Z,98.77
2017-01-25T00:11:28.224Z,97.82
2017-01-25T00:12:28.889Z,98.2
2017-01-25T00:13:29.565Z,97.91
2017-01-25T00:14:30.234Z,97.82
2017-01-25T00:15:30.902Z,97.91
2017-01-25T00:16:31.587Z,98.29
2017-01-25T00:17:32.247Z,98.48
2017-01-25T00:18:32.937Z,98.58
2017-01-25T00:19:33.600Z,98.48
2017-01-25T00:20:34.265Z,98.48
2017-01-25T00:21:34.958Z,98.48
2017-01-25T00:22:35.642Z,98.2
2017-01-25T00:23:36.330Z,98.39
2017-01-25T00:24:36.993Z,98.67
2017-01-25T00:25:37.658Z,99.15
2017-01-25T00:26:38.346Z,99.24
2017-01-25T00:27:39.096Z,98.48
2017-01-25T00:28:39.761Z,98.86
2017-01-25T00:29:40.426Z,98.1
2017-01-25T00:30:41.094Z,98.86
2017-01-25T00:31:41.764Z,98.58
2017-01-25T00:32:42.460Z,99.24
2017-01-25T00:33:43.135Z,99.43
2017-01-25T00:34:43.834Z,99.24
2017-01-25T00:35:44.509Z,99.43
2017-01-25T00:36:45.179Z,98.96
2017-01-25T00:37:45.842Z,99.33
2017-01-25T00:38:46.527Z,98.58
2017-01-25T00:39:47.192Z,99.15
2017-01-25T00:40:47.853Z,99.62
2017-01-25T00:41:48.560Z,99.71
2017-01-25T00:42:49.211Z,99.71
2017-01-25T00:43:49.888Z,99.9
2017-01-25T00:44:50.584Z,99.9
2017-01-25T00:45:51.243Z,99.71
2017-01-25T00:46:51.923Z,99.71
2017-01-25T00:47:52.609Z,99.99
2017-01-25T00:48:53.314Z,99.71
2017-01-25T00:49:53.987Z,99.8
2017-01-25T00:50:54.647Z,99.24
2017-01-25T00:51:55.309Z,99.05
2017-01-25T00:52:55.988Z,99.15
2017-01-25T00:53:56.657Z,99.24
2017-01-25T00:54:57.338Z,99.05
2017-01-25T00:55:58.008Z,99.05
2017-01-25T00:56:58.690Z,98.96
2017-01-25T00:57:59.358Z,99.62
2017-01-25T00:59:00.063Z,99.15
2017-01-25T01:00:00.734Z,99.05
2017-01-25T01:01:01.414Z,99.05
2017-01-25T01:02:02.075Z,99.43
2017-01-25T01:03:02.751Z,98.67
2017-01-25T01:04:03.441Z,99.15
2017-01-25T01:05:04.111Z,99.24
2017-01-25T01:06:04.778Z,99.05
2017-01-25T01:07:05.479Z,98.67
2017-01-25T01:08:06.150Z,99.43
2017-01-25T01:09:06.822Z,99.24
2017-01-25T01:10:07.505Z,98.86
2017-01-25T01:11:08.199Z,99.15
2017-01-25T01:12:08.873Z,99.62
2017-01-25T01:13:09.533Z,99.62
2017-01-25T01:14:10.233Z,99.8
2017-01-25T01:15:10.895Z,99.9
2017-01-25T01:16:11.576Z,99.99
2017-01-25T01:17:12.256Z,99.05
2017-01-25T01:18:12.923Z,99.05
2017-01-25T01:19:13.628Z,99.05
2017-01-25T01:20:14.308Z,98.86
2017-01-25T01:21:14.974Z,99.33
2017-01-25T01:22:15.642Z,99.24
2017-01-25T01:23:16.319Z,99.99
2017-01-25T01:24:16.980Z,99.05
2017-01-25T01:25:17.658Z,99.05
2017-01-25T01:26:18.330Z,99.05
2017-01-25T01:27:19.006Z,99.15
2017-01-25T01:28:19.701Z,99.24
2017-01-25T01:29:20.379Z,99.52
2017-01-25T01:30:21.040Z,99.71
2017-01-25T01:31:21.706Z,99.8
2017-01-25T01:32:22.376Z,99.9
2017-01-25T01:33:23.050Z,99.71
2017-01-25T01:34:23.720Z,99.52
2017-01-25T01:35:24.375Z,99.9
2017-01-25T01:36:25.072Z,99.9
2017-01-25T01:37:25.728Z,99.8
2017-01-25T01:38:26.487Z,99.99
2017-01-25T01:39:27.175Z,99.99
2017-01-25T01:40:27.852Z,99.99
2017-01-25T01:41:28.518Z,99.8
2017-01-25T01:42:29.197Z,99.9
2017-01-25T01:43:29.863Z,99.43
2017-01-25T01:44:30.531Z,99.8
2017-01-25T01:45:31.203Z,99.99
2017-01-25T01:46:31.879Z,99.9
2017-01-25T01:47:32.562Z,99.62
2017-01-25T01:48:33.223Z,99.9
2017-01-25T01:49:33.885Z,99.62
2017-01-25T01:50:34.554Z,99.62
2017-01-25T01:51:35.235Z,99.99
2017-01-25T01:52:35.909Z,99.71
2017-01-25T01:53:36.591Z,99.43
2017-01-25T01:54:37.258Z,99.8
2017-01-25T01:55:37.948Z,99.99
2017-01-25T01:56:38.611Z,99.99
2017-01-25T01:57:39.285Z,99.71
2017-01-25T01:58:39.952Z,99.62
2017-01-25T01:59:40.629Z,99.62
2017-01-25T02:00:41.302Z,99.43
2017-01-25T02:01:41.980Z,99.62
2017-01-25T02:02:42.635Z,99.71
2017-01-25T02:03:43.315Z,99.99
2017-01-25T02:04:43.982Z,99.9
2017-01-25T02:05:44.647Z,99.62
2017-01-25T02:06:45.326Z,99.99
2017-01-25T02:07:46.004Z,99.8
2017-01-25T02:08:46.669Z,99.71
2017-01-25T02:09:47.342Z,99.99
2017-01-25T02:10:48.059Z,99.9
2017-01-25T02:11:48.767Z,99.99
2017-01-25T02:12:49.434Z,99.8
2017-01-25T02:13:50.093Z,99.99
2017-01-25T02:14:57.432Z,99.9
2017-01-25T02:15:58.102Z,99.62
2017-01-25T02:16:58.794Z,99.43
2017-01-25T02:17:59.456Z,99.8
2017-01-25T02:19:00.139Z,99.99
2017-01-25T02:20:00.828Z,99.9
2017-01-25T02:21:01.502Z,99.62
2017-01-25T02:22:02.177Z,99.8
2017-01-25T02:23:02.863Z,99.9
2017-01-25T02:24:03.528Z,99.52
2017-01-25T02:25:04.209Z,99.33
2017-01-25T02:26:04.868Z,99.52
2017-01-25T02:27:05.545Z,99.52
2017-01-25T02:28:06.207Z,99.52
2017-01-25T02:29:06.875Z,99.24
2017-01-25T02:30:07.528Z,99.99
2017-01-25T02:31:08.215Z,99.9
2017-01-25T02:32:08.890Z,99.71
2017-01-25T02:33:09.555Z,99.52
2017-01-25T02:34:10.233Z,99.8
2017-01-25T02:35:10.996Z,99.71
2017-01-25T02:36:11.655Z,99.43
2017-01-25T02:37:12.334Z,99.71
2017-01-25T02:38:12.997Z,99.99
2017-01-25T02:39:13.686Z,99.43
2017-01-25T02:40:14.365Z,99.24
2017-01-25T02:41:15.042Z,98.48
2017-01-25T02:42:15.708Z,99.09
2017-01-25T02:43:16.374Z,99.43
2017-01-25T02:44:17.037Z,99.05
2017-01-25T02:45:17.698Z,98.96
2017-01-25T02:46:18.380Z,99.05
2017-01-25T02:47:19.064Z,98.96
2017-01-25T02:48:19.743Z,98.77
2017-01-25T02:49:20.411Z,99.05
2017-01-25T02:50:21.097Z,99.05
2017-01-25T02:51:21.776Z,99.33
2017-01-25T02:52:22.456Z,98.58
2017-01-25T02:53:23.146Z,98.58
2017-01-25T02:54:23.837Z,98.58
2017-01-25T02:55:24.528Z,98.48
2017-01-25T02:56:25.195Z,98.39
2017-01-25T02:57:25.875Z,98.01
2017-01-25T02:58:26.543Z,98.1
2017-01-25T02:59:27.370Z,98.48
2017-01-25T03:00:28.188Z,97.82
2017-01-25T03:01:28.875Z,98.01
2017-01-25T03:02:29.558Z,98.1
2017-01-25T03:03:30.223Z,98.01
2017-01-25T03:04:30.898Z,98.2
2017-01-25T03:05:31.557Z,98.39
2017-01-25T03:06:32.243Z,98.2
2017-01-25T03:07:32.944Z,98.2
2017-01-25T03:08:33.613Z,98.1
2017-01-25T03:09:34.274Z,98.29
2017-01-25T03:10:34.954Z,98.86
2017-01-25T03:11:35.636Z,98.2
2017-01-25T03:12:36.337Z,98.39
2017-01-25T03:13:36.996Z,98.01
2017-01-25T03:14:37.751Z,98.29
2017-01-25T03:15:38.409Z,98.58
2017-01-25T03:16:39.093Z,98.67
2017-01-25T03:17:39.759Z,98.48
2017-01-25T03:18:40.424Z,99.15
2017-01-25T03:19:41.087Z,99.15
2017-01-25T03:20:41.797Z,99.33
2017-01-25T03:21:42.476Z,99.15
2017-01-25T03:22:43.178Z,99
2017-01-25T03:23:43.891Z,99.24
2017-01-25T03:24:44.563Z,98.96
2017-01-25T03:25:45.235Z,99.33
2017-01-25T03:26:45.913Z,99.43
2017-01-25T03:27:46.560Z,99.43
2017-01-25T03:28:47.242Z,99.43
2017-01-25T03:29:47.908Z,99.24
2017-01-25T03:30:48.587Z,98.86
2017-01-25T03:31:49.249Z,98.67
2017-01-25T03:32:49.929Z,98.86
2017-01-25T03:33:50.640Z,98.96
2017-01-25T03:34:51.361Z,98.86
2017-01-25T03:35:52.062Z,99.05
2017-01-25T03:36:52.740Z,99.05
2017-01-25T03:37:53.410Z,99.05
2017-01-25T03:38:54.075Z,99.33
2017-01-25T03:39:54.738Z,98.58
2017-01-25T03:40:55.426Z,98.39
2017-01-25T03:41:56.172Z,99.15
2017-01-25T03:42:56.873Z,98.67
2017-01-25T03:43:57.742Z,98.77
2017-01-25T03:44:58.429Z,98.86
2017-01-25T03:45:59.102Z,98.67
2017-01-25T03:46:59.783Z,98.58
2017-01-25T03:48:00.454Z,98.39
2017-01-25T03:49:01.124Z,98.58
2017-01-25T03:50:01.804Z,98.77
2017-01-25T03:51:02.473Z,98.67
2017-01-25T03:52:03.152Z,98.1
2017-01-25T03:53:03.847Z,98.1
2017-01-25T03:54:04.517Z,98.86
2017-01-25T03:55:05.205Z,98.67
2017-01-25T03:56:05.920Z,98.96
2017-01-25T03:57:06.577Z,99.33
2017-01-25T03:58:07.292Z,99.33
2017-01-25T03:59:07.950Z,99.24
2017-01-25T04:00:08.635Z,99.43
2017-01-25T04:01:09.315Z,99.43
2017-01-25T04:02:10.014Z,99.43
2017-01-25T04:03:10.750Z,99.15
2017-01-25T04:04:11.404Z,98.81
2017-01-25T04:05:12.100Z,99.05
2017-01-25T04:06:12.781Z,99.05
2017-01-25T04:07:13.494Z,99.19
2017-01-25T04:08:14.202Z,99.05
2017-01-25T04:09:14.911Z,99.33
2017-01-25T04:10:15.636Z,99.05
2017-01-25T04:11:16.310Z,98.96
2017-01-25T04:12:16.987Z,99.05
2017-01-25T04:13:17.835Z,99.15
2017-01-25T04:14:18.526Z,99.05
2017-01-25T04:15:19.215Z,99.24
2017-01-25T04:16:19.880Z,98.77
2017-01-25T04:17:20.553Z,99.24
2017-01-25T04:18:21.228Z,99.15
2017-01-25T04:19:21.900Z,98.39
2017-01-25T04:20:22.571Z,98.39
2017-01-25T04:21:23.242Z,99.15
2017-01-25T04:22:23.990Z,99.24
2017-01-25T04:23:24.665Z,99.33
2017-01-25T04:24:25.333Z,99.15
2017-01-25T04:25:25.990Z,98.86
2017-01-25T04:26:26.655Z,99.15
2017-01-25T04:27:27.326Z,99.24
2017-01-25T04:28:27.987Z,99.15
2017-01-25T04:29:28.700Z,98.39
2017-01-25T04:30:29.368Z,98.67
2017-01-25T04:31:30.030Z,98.58
2017-01-25T04:32:30.693Z,98.2
2017-01-25T04:33:31.362Z,99.24
2017-01-25T04:34:32.039Z,99.05
2017-01-25T04:35:32.723Z,98.86
2017-01-25T04:36:33.430Z,99.05
2017-01-25T04:37:34.102Z,99.33
2017-01-25T04:38:34.762Z,99.24
2017-01-25T04:39:35.448Z,99.19
2017-01-25T04:40:36.122Z,99.8
2017-01-25T04:41:36.810Z,99.85
2017-01-25T04:42:37.471Z,99.8
2017-01-25T04:43:38.136Z,99.19
2017-01-25T04:44:38.818Z,99.15
2017-01-25T04:45:39.481Z,99.47
2017-01-25T04:46:40.156Z,99.99
2017-01-25T04:47:40.845Z,99.57
2017-01-25T04:48:41.515Z,99.71
2017-01-25T04:49:42.229Z,99.47
2017-01-25T04:50:42.854Z,99.9
2017-01-25T04:51:43.525Z,99.71
2017-01-25T04:52:44.200Z,99.24
2017-01-25T04:53:44.862Z,99.09
2017-01-25T04:54:45.539Z,99.47
2017-01-25T04:55:46.214Z,99.66
2017-01-25T04:56:46.894Z,99.66
2017-01-25T04:57:47.564Z,99.95
2017-01-25T04:58:48.222Z,99.99
2017-01-25T04:59:48.883Z,99.99
2017-01-25T05:00:49.558Z,99.99
2017-01-25T05:01:50.242Z,99.99
2017-01-25T05:02:50.911Z,99.99
2017-01-25T05:03:51.583Z,99.99
2017-01-25T05:04:52.249Z,99.99
2017-01-25T05:05:52.923Z,99.95
2017-01-25T05:06:53.590Z,99.99
2017-01-25T05:07:54.301Z,99.95
2017-01-25T05:08:54.971Z,99.99
2017-01-25T05:09:55.643Z,99.99
2017-01-25T05:10:56.306Z,99.99
2017-01-25T05:11:57.011Z,99.99
2017-01-25T05:12:57.706Z,99.99
2017-01-25T05:13:58.371Z,99.99
2017-01-25T05:14:59.091Z,99.99
2017-01-25T05:15:59.741Z,99.99
2017-01-25T05:17:00.412Z,99.99
2017-01-25T05:18:01.085Z,99.99
2017-01-25T05:19:01.755Z,99.99
2017-01-25T05:20:02.435Z,99.99
2017-01-25T05:21:03.115Z,99.95
2017-01-25T05:22:03.777Z,99.66
2017-01-25T05:23:04.442Z,99.57
2017-01-25T05:24:05.114Z,99.85
2017-01-25T05:25:05.845Z,99.99
2017-01-25T05:26:06.529Z,99.99
2017-01-25T05:27:07.200Z,99.99
2017-01-25T05:28:07.872Z,99.99
2017-01-25T05:29:08.551Z,99.99
2017-01-25T05:30:09.214Z,99.99
2017-01-25T05:31:09.886Z,99.99
2017-01-25T05:32:10.581Z,99.99
2017-01-25T05:33:11.247Z,99.99
2017-01-25T05:34:11.922Z,99.99
2017-01-25T05:35:12.579Z,99.99
2017-01-25T05:36:13.237Z,99.99
2017-01-25T05:37:13.900Z,99.99
2017-01-25T05:38:14.570Z,99.99
2017-01-25T05:39:15.244Z,99.99
2017-01-25T05:40:15.923Z,99.99
2017-01-25T05:41:16.583Z,99.99
2017-01-25T05:42:17.247Z,99.99
2017-01-25T05:43:17.917Z,99.99
2017-01-25T05:44:18.573Z,99.99
2017-01-25T05:45:19.243Z,99.99
2017-01-25T05:46:19.929Z,99.99
2017-01-25T05:47:20.609Z,99.99
2017-01-25T05:48:21.272Z,99.99
2017-01-25T05:49:21.967Z,99.99
2017-01-25T05:50:22.641Z,99.99
2017-01-25T05:51:23.360Z,99.99
2017-01-25T05:52:24.029Z,99.99
2017-01-25T05:53:24.702Z,99.99
2017-01-25T05:54:25.488Z,99.99
2017-01-25T05:55:26.150Z,99.99
2017-01-25T05:56:26.821Z,99.99
2017-01-25T05:57:27.501Z,99.99
2017-01-25T05:58:28.159Z,99.99
2017-01-25T05:59:28.839Z,99.99
2017-01-25T06:00:29.503Z,99.99
2017-01-25T06:01:30.173Z,99.99
2017-01-25T06:02:30.844Z,99.99
2017-01-25T06:03:31.542Z,99.99
2017-01-25T06:04:32.200Z,99.99
2017-01-25T06:05:32.865Z,99.99
2017-01-25T06:06:33.537Z,99.99
2017-01-25T06:07:34.209Z,99.99
2017-01-25T06:08:34.888Z,99.99
2017-01-25T06:09:35.531Z,99.99
2017-01-25T06:10:36.227Z,99.99
2017-01-25T06:11:36.900Z,99.99
2017-01-25T06:12:37.574Z,99.99
2017-01-25T06:13:38.256Z,99.85
2017-01-25T06:14:38.923Z,99.99
2017-01-25T06:15:39.585Z,99.99
2017-01-25T06:16:40.256Z,99.38
2017-01-25T06:17:40.963Z,99.8
2017-01-25T06:18:41.697Z,99.76
2017-01-25T06:19:42.391Z,99.99
2017-01-25T06:20:43.059Z,99.99
2017-01-25T06:21:43.749Z,99.99
2017-01-25T06:22:44.491Z,99.76
2017-01-25T06:23:45.181Z,99.66
2017-01-25T06:24:45.846Z,99.99
2017-01-25T06:25:46.524Z,99.99
2017-01-25T06:26:47.209Z,99.99
2017-01-25T06:27:47.876Z,99.99
2017-01-25T06:28:48.551Z,99.95
2017-01-25T06:29:49.223Z,99.99
2017-01-25T06:30:49.892Z,99.99
2017-01-25T06:31:50.568Z,99.99
2017-01-25T06:32:51.232Z,99.99
2017-01-25T06:33:51.964Z,99.99
2017-01-25T06:34:52.666Z,99.99
2017-01-25T06:35:53.360Z,99.99
2017-01-25T06:36:54.054Z,99.99
2017-01-25T06:37:54.722Z,99.99
2017-01-25T06:38:55.393Z,99.99
2017-01-25T06:39:56.062Z,99.99
2017-01-25T06:40:56.743Z,99.99
2017-01-25T06:41:57.474Z,99.99
2017-01-25T06:42:58.152Z,99.99
2017-01-25T06:43:58.814Z,99.99
2017-01-25T06:44:59.477Z,99.99
2017-01-25T06:46:00.170Z,99.99
2017-01-25T06:47:00.863Z,99.99
2017-01-25T06:48:01.542Z,99.99
2017-01-25T06:49:02.261Z,99.99
2017-01-25T06:50:02.937Z,99.99
2017-01-25T06:51:03.618Z,99.99
2017-01-25T06:52:04.286Z,99.99
2017-01-25T06:53:04.954Z,99.99
2017-01-25T06:54:05.692Z,99.99
2017-01-25T06:55:06.402Z,99.99
2017-01-25T06:56:07.106Z,99.99
2017-01-25T06:57:07.808Z,99.99
2017-01-25T06:58:08.483Z,99.99
2017-01-25T06:59:09.158Z,99.99
2017-01-25T07:00:09.845Z,99.99
2017-01-25T07:01:10.567Z,99.99
2017-01-25T07:02:11.267Z,99.99
2017-01-25T07:03:11.980Z,99.99
2017-01-25T07:04:12.669Z,99.99
2017-01-25T07:05:13.343Z,99.99
2017-01-25T07:06:14.061Z,99.99
2017-01-25T07:07:14.763Z,99.99
2017-01-25T07:08:15.463Z,99.99
2017-01-25T07:09:16.152Z,99.99
2017-01-25T07:10:16.847Z,99.99
2017-01-25T07:11:17.532Z,99.99
2017-01-25T07:12:18.208Z,99.99
2017-01-25T07:13:18.875Z,99.99
2017-01-25T07:14:19.554Z,99.99
2017-01-25T07:15:20.213Z,99.99
2017-01-25T07:16:20.910Z,99.99
2017-01-25T07:17:21.607Z,99.99
2017-01-25T07:18:22.282Z,99.99
2017-01-25T07:19:22.970Z,99.99
2017-01-25T07:20:23.668Z,99.99
2017-01-25T07:21:24.361Z,99.99
2017-01-25T07:22:25.034Z,99.99
2017-01-25T07:23:25.697Z,99.99
2017-01-25T07:24:26.401Z,99.99
2017-01-25T07:25:27.073Z,99.99
2017-01-25T07:26:27.772Z,99.9
2017-01-25T07:27:28.432Z,99.9
2017-01-25T07:28:29.140Z,99.62
2017-01-25T07:29:29.837Z,99.62
2017-01-25T07:30:30.503Z,99.24
2017-01-25T07:31:31.180Z,99.24
2017-01-25T07:32:31.891Z,99.15
2017-01-25T07:33:32.570Z,99.8
2017-01-25T07:34:33.232Z,99.76
2017-01-25T07:35:33.935Z,99.57
2017-01-25T07:36:34.621Z,99.43
2017-01-25T07:37:35.321Z,99.95
2017-01-25T07:38:35.989Z,99.99
2017-01-25T07:39:36.664Z,99.62
2017-01-25T07:40:37.388Z,99.47
2017-01-25T07:41:38.058Z,99.76
2017-01-25T07:42:38.729Z,99.76
2017-01-25T07:43:39.402Z,99.85
2017-01-25T07:44:40.087Z,99.15
2017-01-25T07:45:40.756Z,99.47
2017-01-25T07:46:41.427Z,99.33
2017-01-25T07:47:42.114Z,99.05
2017-01-25T07:48:42.776Z,99.57
2017-01-25T07:49:43.444Z,99.66
2017-01-25T07:50:44.203Z,99.62
2017-01-25T07:51:44.907Z,99.76
2017-01-25T07:52:45.568Z,99.52
2017-01-25T07:53:46.241Z,99.8
2017-01-25T07:54:46.932Z,99.76
2017-01-25T07:55:47.598Z,99.85
2017-01-25T07:56:48.267Z,99.38
2017-01-25T07:57:48.944Z,99.95
2017-01-25T07:58:49.610Z,99.76
2017-01-25T07:59:50.273Z,99.95
2017-01-25T08:00:50.964Z,99.99
2017-01-25T08:01:51.618Z,99.76
2017-01-25T08:02:52.292Z,99.85
2017-01-25T08:03:52.967Z,99.99
2017-01-25T08:04:53.636Z,99.99
2017-01-25T08:05:54.299Z,99.99
2017-01-25T08:06:54.982Z,99.99
2017-01-25T08:07:55.663Z,99.99
2017-01-25T08:08:56.329Z,99.99
2017-01-25T08:09:57.003Z,99.99
2017-01-25T08:10:57.668Z,99.99
2017-01-25T08:11:58.363Z,99.99
2017-01-25T08:12:59.035Z,99.99
2017-01-25T08:13:59.763Z,99.99
2017-01-25T08:15:00.451Z,99.99
2017-01-25T08:16:01.156Z,99.99
2017-01-25T08:17:01.826Z,99.99
2017-01-25T08:18:02.500Z,99.99
2017-01-25T08:19:03.181Z,99.71
2017-01-25T08:20:03.964Z,99.62
2017-01-25T08:21:04.583Z,99.71
2017-01-25T08:22:05.285Z,99.9
2017-01-25T08:23:05.963Z,99.71
2017-01-25T08:24:06.664Z,99.8
2017-01-25T08:25:07.336Z,99.8
2017-01-25T08:26:07.994Z,99.33
2017-01-25T08:27:08.654Z,99.33
2017-01-25T08:28:09.353Z,99.62
2017-01-25T08:29:10.031Z,99.71
2017-01-25T08:30:10.700Z,99.9
2017-01-25T08:31:11.366Z,99.15
2017-01-25T08:32:12.043Z,99.24
2017-01-25T08:33:12.702Z,99.43
2017-01-25T08:34:13.387Z,99.15
2017-01-25T08:35:14.078Z,99.05
2017-01-25T08:36:14.802Z,99.15
2017-01-25T08:37:15.463Z,99.05
2017-01-25T08:38:16.127Z,98.96
2017-01-25T08:39:16.815Z,98.9
2017-01-25T08:40:17.498Z,99.09
2017-01-25T08:41:18.176Z,99
2017-01-25T08:42:18.862Z,99.09
2017-01-25T08:43:19.517Z,99.62
2017-01-25T08:44:20.204Z,99.95
2017-01-25T08:45:20.874Z,99.9
2017-01-25T08:46:21.552Z,99.15
2017-01-25T08:47:22.244Z,99.05
2017-01-25T08:48:22.915Z,98.48
2017-01-25T08:49:23.613Z,98.48
2017-01-25T08:50:24.363Z,98.96
2017-01-25T08:51:26.351Z,99.05
2017-01-25T08:52:27.018Z,99.05
2017-01-25T08:53:27.799Z,98.01
2017-01-25T08:54:28.744Z,98.29
2017-01-25T08:55:29.438Z,99.09
2017-01-25T08:56:30.119Z,99.09
2017-01-25T08:57:30.785Z,99.09
2017-01-25T08:58:31.440Z,98.86
2017-01-25T08:59:32.106Z,99.24
2017-01-25T09:00:32.778Z,99.15
2017-01-25T09:01:33.470Z,98.58
2017-01-25T09:02:34.141Z,98.43
2017-01-25T09:03:34.812Z,99.24
2017-01-25T09:04:35.485Z,98.62
2017-01-25T09:05:36.226Z,99.09
2017-01-25T09:06:36.958Z,99.19
2017-01-25T09:07:37.739Z,98.81
2017-01-25T09:08:38.558Z,99.28
2017-01-25T09:09:39.381Z,99
2017-01-25T09:10:40.208Z,99.28
2017-01-25T09:11:41.076Z,99.09
2017-01-25T09:12:41.776Z,99.33
2017-01-25T09:13:42.443Z,99.95
2017-01-25T09:14:43.130Z,99.15
2017-01-25T09:15:43.815Z,99.05
2017-01-25T09:16:44.495Z,99.05
2017-01-25T09:17:45.231Z,98.96
2017-01-25T09:18:45.908Z,98.58
2017-01-25T09:19:46.625Z,98.58
2017-01-25T09:20:47.310Z,98.67
2017-01-25T09:21:48.034Z,98.67
2017-01-25T09:22:48.726Z,98.52
2017-01-25T09:23:49.426Z,99.05
2017-01-25T09:24:50.137Z,99.15
2017-01-25T09:25:50.835Z,99.05
2017-01-25T09:26:51.519Z,99.15
2017-01-25T09:27:52.204Z,99.24
2017-01-25T09:28:52.896Z,99.15
2017-01-25T09:29:53.670Z,99.05
2017-01-25T09:30:54.360Z,99.05
2017-01-25T09:31:55.074Z,98.86
2017-01-25T09:32:55.743Z,99.24
2017-01-25T09:33:56.732Z,98.96
2017-01-25T09:34:57.573Z,99.33
2017-01-25T09:35:58.417Z,99.99
2017-01-25T09:36:59.493Z,99.9
2017-01-25T09:38:00.307Z,99.15
2017-01-25T09:39:01.033Z,98.86
2017-01-25T09:40:01.708Z,99.15
2017-01-25T09:41:02.377Z,99.15
2017-01-25T09:42:03.053Z,98.58
2017-01-25T09:43:03.730Z,98.86
2017-01-25T09:44:04.455Z,99.15
2017-01-25T09:45:05.226Z,99.33
2017-01-25T09:46:06.000Z,98.2
2017-01-25T09:47:06.829Z,98.01
2017-01-25T09:48:07.504Z,97.91
2017-01-25T09:49:08.187Z,98.1
2017-01-25T09:50:08.894Z,98.39
2017-01-25T09:51:09.562Z,98.2
2017-01-25T09:52:10.389Z,98.29
2017-01-25T09:53:11.067Z,98.2
2017-01-25T09:54:11.822Z,98.29
2017-01-25T09:55:12.944Z,98.62
2017-01-25T09:56:13.877Z,98.43
2017-01-25T09:57:14.431Z,99.19
2017-01-25T09:58:15.138Z,99.19
2017-01-25T09:59:15.833Z,99.85
2017-01-25T10:00:16.621Z,99.85
2017-01-25T10:01:17.308Z,99.99
2017-01-25T10:02:17.991Z,99.99
2017-01-25T10:03:18.665Z,99.99
2017-01-25T10:04:19.333Z,99.99
2017-01-25T10:05:20.018Z,99.99
2017-01-25T10:06:20.715Z,99.99
2017-01-25T10:07:21.394Z,99.95
2017-01-25T10:08:22.062Z,99.76
2017-01-25T10:09:22.744Z,99.99
2017-01-25T10:10:23.406Z,99.66
2017-01-25T10:11:24.089Z,99.57
2017-01-25T10:12:24.773Z,99
2017-01-25T10:13:25.516Z,99
2017-01-25T10:14:26.350Z,98.9
2017-01-25T10:15:27.096Z,99.47
2017-01-25T10:16:28.043Z,98.9
2017-01-25T10:17:28.762Z,99
2017-01-25T10:18:29.869Z,99.15
2017-01-25T10:19:30.701Z,98.81
2017-01-25T10:20:31.362Z,98.86
2017-01-25T10:21:32.064Z,99.19
2017-01-25T10:22:32.788Z,99.09
2017-01-25T10:23:33.510Z,99.43
2017-01-25T10:24:34.235Z,98.58
2017-01-25T10:25:35.044Z,98.86
2017-01-25T10:26:35.810Z,99.24
2017-01-25T10:27:36.702Z,98.58
2017-01-25T10:28:37.423Z,98.67
2017-01-25T10:29:38.317Z,98.67
2017-01-25T10:30:39.136Z,98.77
2017-01-25T10:31:39.807Z,99.15
2017-01-25T10:32:40.611Z,99
2017-01-25T10:33:41.398Z,98.86
2017-01-25T10:34:42.076Z,99.05
2017-01-25T10:35:42.786Z,99.05
2017-01-25T10:36:43.507Z,99.33
2017-01-25T10:37:44.250Z,98.67
2017-01-25T10:38:45.050Z,98.67
2017-01-25T10:39:45.833Z,98.2
2017-01-25T10:40:46.652Z,98.48
2017-01-25T10:41:47.354Z,98.77
2017-01-25T10:42:48.077Z,98.86
2017-01-25T10:43:48.881Z,98.77
2017-01-25T10:44:49.771Z,98.67
2017-01-25T10:45:50.556Z,98.1
2017-01-25T10:46:51.306Z,98.2
2017-01-25T10:47:52.033Z,98.2
2017-01-25T10:48:52.736Z,98.67
2017-01-25T10:49:53.455Z,98.58
2017-01-25T10:50:54.284Z,98.58
2017-01-25T10:51:54.956Z,98.67
2017-01-25T10:52:55.629Z,98.67
2017-01-25T10:53:56.339Z,98.2
2017-01-25T10:54:57.015Z,98.1
2017-01-25T10:55:57.733Z,98.29
2017-01-25T10:56:58.405Z,97.34
2017-01-25T10:57:59.081Z,97.44
2017-01-25T10:58:59.775Z,97.16
2017-01-25T11:00:00.463Z,97.82
2017-01-25T11:01:01.132Z,97.34
2017-01-25T11:02:01.838Z,96.97
2017-01-25T11:03:02.487Z,96.78
2017-01-25T11:04:03.175Z,96.69
2017-01-25T11:05:03.856Z,97.25
2017-01-25T11:06:04.548Z,96.88
2017-01-25T11:07:05.230Z,96.88
2017-01-25T11:08:05.893Z,96.97
2017-01-25T11:09:06.556Z,97.16
2017-01-25T11:10:07.220Z,97.16
2017-01-25T11:11:07.889Z,97.16
2017-01-25T11:12:08.571Z,96.97
2017-01-25T11:13:09.251Z,96.59
2017-01-25T11:14:09.937Z,96.21
2017-01-25T11:15:10.613Z,96.12
2017-01-25T11:16:11.296Z,96.59
2017-01-25T11:17:11.983Z,96.12
2017-01-25T11:18:12.654Z,96.5
2017-01-25T11:19:13.398Z,96.88
2017-01-25T11:20:14.106Z,96.31
2017-01-25T11:21:14.787Z,96.21
2017-01-25T11:22:15.486Z,96.5
2017-01-25T11:23:16.151Z,96.21
2017-01-25T11:24:16.829Z,96.21
2017-01-25T11:25:18.339Z,96.21
2017-01-25T11:26:19.027Z,95.64
2017-01-25T11:27:19.694Z,95.64
2017-01-25T11:28:20.381Z,95.64
2017-01-25T11:29:21.115Z,95.17
2017-01-25T11:30:21.786Z,95.17
2017-01-25T11:31:22.455Z,95.17
2017-01-25T11:32:23.126Z,95.26
2017-01-25T11:33:23.843Z,95.26
2017-01-25T11:34:24.509Z,95.45
2017-01-25T11:35:25.180Z,95.26
2017-01-25T11:36:25.853Z,95.17
2017-01-25T11:37:26.525Z,95.26
2017-01-25T11:38:27.197Z,95.07
2017-01-25T11:39:27.884Z,94.98
2017-01-25T11:40:28.575Z,95.17
2017-01-25T11:41:29.223Z,95.17
2017-01-25T11:42:29.899Z,95.07
2017-01-25T11:43:30.578Z,94.98
2017-01-25T11:44:31.250Z,94.32
2017-01-25T11:45:31.915Z,94.7
2017-01-25T11:46:32.579Z,94.79
2017-01-25T11:47:33.291Z,95.17
2017-01-25T11:48:33.962Z,94.79
2017-01-25T11:49:34.643Z,95.26
2017-01-25T11:50:35.327Z,94.89
2017-01-25T11:51:35.998Z,95.07
2017-01-25T11:52:36.652Z,95.26
2017-01-25T11:53:37.340Z,95.45
2017-01-25T11:54:38.016Z,95.74
2017-01-25T11:55:38.682Z,95.83
2017-01-25T11:56:39.375Z,95.64
2017-01-25T11:57:40.044Z,95.83
2017-01-25T11:58:40.710Z,95.83
2017-01-25T11:59:41.385Z,95.36
2017-01-25T12:00:42.055Z,95.07
2017-01-25T12:01:42.738Z,94.7
2017-01-25T12:02:43.441Z,94.79
2017-01-25T12:03:44.141Z,94.32
2017-01-25T12:04:44.800Z,94.32
2017-01-25T12:05:45.471Z,94.6
2017-01-25T12:06:46.156Z,94.42
2017-01-25T12:07:46.834Z,94.32
2017-01-25T12:08:47.517Z,94.6
2017-01-25T12:09:48.208Z,94.13
2017-01-25T12:10:48.888Z,94.13
2017-01-25T12:11:49.725Z,94.32
2017-01-25T12:12:50.233Z,94.42
2017-01-25T12:13:50.925Z,94.7
2017-01-25T12:14:51.593Z,94.13
2017-01-25T12:15:52.257Z,94.13
2017-01-25T12:16:52.921Z,93.75
2017-01-25T12:17:53.604Z,94.23
2017-01-25T12:18:54.264Z,94.23
2017-01-25T12:19:54.933Z,93.94
2017-01-25T12:20:55.620Z,93.75
2017-01-25T12:21:57.004Z,94.04
2017-01-25T12:22:56.961Z,93.56
2017-01-25T12:23:57.635Z,94.42
2017-01-25T12:24:58.321Z,94.04
2017-01-25T12:25:58.995Z,93.89
2017-01-25T12:26:59.666Z,94.04
2017-01-25T12:28:00.315Z,93.75
2017-01-25T12:29:00.975Z,93.66
2017-01-25T12:30:01.648Z,93.37
2017-01-25T12:31:02.334Z,94.04
2017-01-25T12:32:03.017Z,93.7
2017-01-25T12:33:03.684Z,93.66
2017-01-25T12:34:04.358Z,93.94
2017-01-25T12:35:05.048Z,93.75
2017-01-25T12:36:05.726Z,92.9
2017-01-25T12:37:06.395Z,93.37
2017-01-25T12:38:07.072Z,93.66
2017-01-25T12:39:07.755Z,93.47
2017-01-25T12:40:08.424Z,93.8
2017-01-25T12:41:09.107Z,93.56
2017-01-25T12:42:09.799Z,92.9
2017-01-25T12:43:10.481Z,92.9
2017-01-25T12:44:11.153Z,93.23
2017-01-25T12:45:11.829Z,93.09
2017-01-25T12:46:12.513Z,92.9
2017-01-25T12:47:13.187Z,92.9
2017-01-25T12:48:13.863Z,93.09
2017-01-25T12:49:14.561Z,93.94
2017-01-25T12:50:15.251Z,93.18
2017-01-25T12:51:15.957Z,92.33
2017-01-25T12:52:16.643Z,92.61
2017-01-25T12:53:17.335Z,92.99
2017-01-25T12:54:18.012Z,93.37
2017-01-25T12:55:18.693Z,93.18
2017-01-25T12:56:19.373Z,93.09
2017-01-25T12:57:20.037Z,93.37
2017-01-25T12:58:20.739Z,93.18
2017-01-25T12:59:21.426Z,92.52
2017-01-25T13:00:22.091Z,92.9
2017-01-25T13:01:22.769Z,93.09
2017-01-25T13:02:23.450Z,92.9
2017-01-25T13:03:24.191Z,93.28
2017-01-25T13:04:24.871Z,93.23
2017-01-25T13:05:25.524Z,92.57